Time;durP1;ratioP1;P1;durP2;ratioP2;P2;SDS_P1;SDS_P2;PMS_P1;PMS_P2;Temp;Humidity;BMP_temperature;BMP_pressure;BME280_temperature;BME280_humidity;BME280_pressure;Samples;Min_cycle;Max_cycle;Signal;HPM_P1;HPM_P2
2022/10/04 00:02:03;;;;;;;14.40;7.45;;;7.20;99.90;;;;;;4951492;28;20476;-71
2022/10/04 00:04:43;;;;;;;13.80;7.78;;;7.10;99.90;;;;;;4934487;29;20142;-71
2022/10/04 00:07:10;;;;;;;14.35;7.95;;;7.10;99.90;;;;;;4956871;28;20082;-71
2022/10/04 00:09:58;;;;;;;12.70;7.65;;;7.10;99.90;;;;;;4921122;29;20499;-71
2022/10/04 00:12:40;;;;;;;15.27;8.10;;;7.10;99.90;;;;;;4934043;29;20071;-71
2022/10/04 00:15:24;;;;;;;12.35;7.95;;;7.10;99.90;;;;;;4959634;28;20556;-72
2022/10/04 00:18:04;;;;;;;16.98;8.15;;;7.10;99.90;;;;;;4952645;28;20569;-71
2022/10/04 00:20:50;;;;;;;20.23;9.00;;;7.00;99.90;;;;;;4952716;29;20118;-71
2022/10/04 00:23:24;;;;;;;15.13;7.28;;;7.00;99.90;;;;;;4953621;28;20047;-71
2022/10/04 00:25:55;;;;;;;18.30;7.35;;;7.00;99.90;;;;;;4952094;29;20039;-71
2022/10/04 00:28:28;;;;;;;13.60;7.28;;;7.10;99.90;;;;;;4947462;28;20066;-70
2022/10/04 00:31:05;;;;;;;17.50;7.72;;;7.00;99.90;;;;;;4963428;28;20421;-71
2022/10/04 00:33:41;;;;;;;13.13;7.00;;;7.00;99.90;;;;;;4950291;29;20478;-71
2022/10/04 00:36:23;;;;;;;13.40;7.00;;;7.00;99.90;;;;;;4968348;28;20081;-71
2022/10/04 00:39:03;;;;;;;15.77;7.60;;;7.00;99.90;;;;;;4952942;28;20043;-71
2022/10/04 00:41:46;;;;;;;11.27;7.53;;;7.00;99.90;;;;;;4952161;29;20039;-71
2022/10/04 00:44:28;;;;;;;11.00;6.50;;;7.00;99.90;;;;;;4951243;29;20090;-71
2022/10/04 00:46:59;;;;;;;10.85;6.70;;;6.90;99.90;;;;;;4950149;28;20098;-71
2022/10/04 00:49:34;;;;;;;13.40;6.55;;;6.90;99.90;;;;;;4959994;28;20059;-71
2022/10/04 00:52:13;;;;;;;14.13;6.53;;;6.90;99.90;;;;;;4950706;29;20074;-71
2022/10/04 00:54:52;;;;;;;14.13;7.18;;;6.90;99.90;;;;;;4951122;28;20059;-71
2022/10/04 00:57:43;;;;;;;10.40;6.07;;;6.80;99.90;;;;;;4949265;28;20058;-71
2022/10/04 01:00:15;;;;;;;13.85;7.07;;;6.90;99.90;;;;;;4951211;29;20051;-70
2022/10/04 01:02:43;;;;;;;13.70;6.88;;;6.80;99.90;;;;;;4951838;28;20039;-70
2022/10/04 01:05:18;;;;;;;13.25;7.53;;;6.80;99.90;;;;;;4959259;28;20403;-71
2022/10/04 01:07:50;;;;;;;11.95;7.13;;;6.80;99.90;;;;;;4965691;28;20560;-72
2022/10/04 01:10:42;;;;;;;13.55;7.07;;;6.80;99.90;;;;;;4936139;29;20539;-71
2022/10/04 01:13:15;;;;;;;12.27;6.95;;;6.80;99.90;;;;;;4954350;28;20600;-71
2022/10/04 01:16:03;;;;;;;14.07;6.40;;;6.70;99.90;;;;;;4943652;28;20054;-71
2022/10/04 01:18:33;;;;;;;11.90;6.45;;;6.70;99.90;;;;;;4948932;29;20598;-71
2022/10/04 01:21:05;;;;;;;13.80;6.63;;;6.70;99.90;;;;;;4964584;28;20037;-71
2022/10/04 01:23:44;;;;;;;11.35;7.03;;;6.70;99.90;;;;;;4960567;28;20046;-70
2022/10/04 01:26:30;;;;;;;11.68;6.38;;;6.60;99.90;;;;;;4952773;28;20470;-71
2022/10/04 01:29:10;;;;;;;10.07;6.50;;;6.60;99.90;;;;;;4955092;28;20047;-71
2022/10/04 01:31:44;;;;;;;17.83;7.18;;;6.60;99.90;;;;;;4935638;28;20485;-71
2022/10/04 01:34:15;;;;;;;16.02;7.28;;;6.60;99.90;;;;;;4952261;28;20557;-70
2022/10/04 01:36:44;;;;;;;14.43;6.90;;;6.60;99.90;;;;;;4927043;29;20056;-70
2022/10/04 01:39:14;;;;;;;9.65;6.53;;;6.60;99.90;;;;;;4955614;28;20046;-70
2022/10/04 01:41:58;;;;;;;11.85;6.82;;;6.60;99.90;;;;;;4932337;28;20581;-70
2022/10/04 01:44:48;;;;;;;14.75;7.03;;;6.50;99.90;;;;;;4966199;28;20070;-70
2022/10/04 01:47:47;;;;;;;10.82;6.60;;;6.50;99.90;;;;;;4966129;28;20047;-71
2022/10/04 01:50:23;;;;;;;14.25;6.70;;;6.50;99.90;;;;;;4921381;29;20081;-70
2022/10/04 01:52:55;;;;;;;14.75;6.78;;;6.40;99.90;;;;;;4954965;28;20055;-70
2022/10/04 01:55:27;;;;;;;9.85;5.85;;;6.40;99.90;;;;;;4947109;29;20417;-70
2022/10/04 01:58:05;;;;;;;12.50;6.55;;;6.40;99.90;;;;;;4952468;28;20866;-70
2022/10/04 02:00:41;;;;;;;13.40;6.95;;;6.40;99.90;;;;;;4951235;28;20506;-70
2022/10/04 02:03:33;;;;;;;10.93;6.70;;;6.30;99.90;;;;;;4932574;29;20051;-70
2022/10/04 02:06:04;;;;;;;13.55;6.30;;;6.40;99.90;;;;;;4973909;28;20110;-71
2022/10/04 02:08:36;;;;;;;15.05;7.15;;;6.30;99.90;;;;;;4950547;28;20051;-70
2022/10/04 02:11:04;;;;;;;15.25;7.15;;;6.30;99.90;;;;;;4952467;28;20047;-70
2022/10/04 02:13:38;;;;;;;11.98;6.30;;;6.30;99.90;;;;;;4930540;29;20044;-70
2022/10/04 02:16:10;;;;;;;16.75;7.32;;;6.30;99.90;;;;;;4946887;29;20039;-70
2022/10/04 02:18:42;;;;;;;13.52;7.05;;;6.30;99.90;;;;;;4953241;28;20083;-70
2022/10/04 02:21:11;;;;;;;14.85;6.82;;;6.30;99.90;;;;;;4959481;28;20050;-70
2022/10/04 02:23:40;;;;;;;9.60;6.10;;;6.30;99.90;;;;;;4949482;28;20091;-70
2022/10/04 02:26:09;;;;;;;12.25;6.88;;;6.30;99.90;;;;;;4950722;29;20059;-71
2022/10/04 02:28:37;;;;;;;12.10;6.50;;;6.30;99.90;;;;;;4950571;29;20061;-71
2022/10/04 02:34:15;;;;;;;12.57;6.80;;;6.20;99.90;;;;;;4969361;28;20090;-72
2022/10/04 02:36:43;;;;;;;14.15;7.00;;;6.20;99.90;;;;;;4965655;28;20644;-71
2022/10/04 02:39:19;;;;;;;10.90;6.57;;;6.20;99.90;;;;;;4953842;28;20502;-71
2022/10/04 02:41:53;;;;;;;12.88;7.13;;;6.20;99.90;;;;;;4966793;28;20525;-71
2022/10/04 02:44:23;;;;;;;12.40;7.15;;;6.20;99.90;;;;;;4959071;28;20053;-71
2022/10/04 02:46:56;;;;;;;16.83;7.20;;;6.20;99.90;;;;;;4966840;28;20429;-71
2022/10/04 02:49:37;;;;;;;15.60;7.95;;;6.20;99.90;;;;;;4957476;28;20612;-70
2022/10/04 02:52:18;;;;;;;12.10;7.23;;;6.10;99.90;;;;;;4949925;28;20046;-70
2022/10/04 02:54:57;;;;;;;13.20;7.60;;;6.10;99.90;;;;;;4973758;28;20050;-70
2022/10/04 02:57:25;;;;;;;12.77;6.85;;;6.00;99.90;;;;;;4948361;28;20050;-70
2022/10/04 03:00:18;;;;;;;13.40;6.63;;;6.00;99.90;;;;;;4972987;28;20046;-70
2022/10/04 03:03:18;;;;;;;11.75;6.47;;;6.00;99.90;;;;;;4968013;28;20583;-72
2022/10/04 03:06:04;;;;;;;11.30;6.72;;;6.00;99.90;;;;;;4952239;29;20458;-71
2022/10/04 03:08:36;;;;;;;11.52;7.13;;;6.00;99.90;;;;;;4945477;29;20066;-71
2022/10/04 03:11:04;;;;;;;12.45;6.57;;;6.00;99.90;;;;;;4967110;28;20474;-71
2022/10/04 03:13:33;;;;;;;10.55;6.80;;;6.00;99.90;;;;;;4964419;28;20050;-71
2022/10/04 03:16:00;;;;;;;18.35;6.90;;;6.00;99.90;;;;;;4963466;28;20046;-71
2022/10/04 03:18:30;;;;;;;15.43;7.88;;;6.00;99.90;;;;;;4954839;28;20138;-71
2022/10/04 03:21:11;;;;;;;14.57;7.15;;;6.00;99.90;;;;;;4942179;29;20486;-71
2022/10/04 03:23:39;;;;;;;13.67;7.80;;;6.00;99.90;;;;;;4962498;28;20047;-71
2022/10/04 03:26:20;;;;;;;17.60;8.18;;;6.00;99.90;;;;;;4953148;29;20051;-71
2022/10/04 03:28:48;;;;;;;14.02;7.63;;;6.00;99.90;;;;;;4954749;28;20454;-71
2022/10/04 03:31:15;;;;;;;11.60;6.80;;;6.00;99.90;;;;;;4936902;28;20145;-72
2022/10/04 03:33:44;;;;;;;11.23;7.22;;;6.10;99.90;;;;;;4956743;28;20478;-70
2022/10/04 03:36:17;;;;;;;16.50;7.40;;;6.00;99.90;;;;;;4956075;28;20035;-71
2022/10/04 03:38:47;;;;;;;13.27;6.97;;;6.00;99.90;;;;;;4954998;28;20039;-71
2022/10/04 03:41:15;;;;;;;13.10;6.68;;;6.00;99.90;;;;;;4953089;29;20043;-72
2022/10/04 03:43:45;;;;;;;13.50;7.03;;;6.00;99.90;;;;;;4959296;28;20376;-70
2022/10/04 03:46:13;;;;;;;14.27;7.45;;;6.00;99.90;;;;;;4952609;29;20059;-70
2022/10/04 03:48:45;;;;;;;11.95;6.45;;;6.00;99.90;;;;;;4955216;28;20501;-70
2022/10/04 03:51:24;;;;;;;12.02;6.80;;;6.00;99.90;;;;;;4954053;28;20038;-70
2022/10/04 03:53:57;;;;;;;12.27;6.88;;;6.00;99.90;;;;;;4953659;28;20126;-70
2022/10/04 03:56:28;;;;;;;12.63;6.90;;;6.00;99.90;;;;;;4962943;28;20367;-70
2022/10/04 03:58:57;;;;;;;12.82;6.50;;;6.00;99.90;;;;;;4954105;28;20047;-70
2022/10/04 04:01:38;;;;;;;12.63;6.80;;;6.10;99.90;;;;;;4956595;28;20046;-71
2022/10/04 04:04:30;;;;;;;15.45;7.32;;;6.10;99.90;;;;;;4951258;28;20054;-70
2022/10/04 04:07:30;;;;;;;14.90;8.05;;;6.10;99.90;;;;;;4934018;29;20499;-71
2022/10/04 04:10:12;;;;;;;13.88;7.07;;;6.10;99.90;;;;;;4951847;28;20058;-71
2022/10/04 04:13:10;;;;;;;13.38;7.43;;;6.20;99.90;;;;;;4954024;28;20470;-72
2022/10/04 04:15:42;;;;;;;18.25;7.45;;;6.20;99.90;;;;;;4958852;28;20047;-69
2022/10/04 04:18:20;;;;;;;14.25;7.32;;;6.20;99.90;;;;;;4951457;29;20450;-70
2022/10/04 04:20:52;;;;;;;10.82;6.63;;;6.20;99.90;;;;;;4959054;28;20047;-70
2022/10/04 04:23:33;;;;;;;13.52;6.82;;;6.20;99.90;;;;;;4951698;29;20047;-70
2022/10/04 04:26:13;;;;;;;13.25;6.72;;;6.30;99.90;;;;;;4948971;29;20055;-70
2022/10/04 04:28:50;;;;;;;13.05;6.78;;;6.30;99.90;;;;;;4950147;28;20047;-72
2022/10/04 04:31:34;;;;;;;11.80;6.53;;;6.30;99.90;;;;;;4956415;28;20047;-72
2022/10/04 04:34:17;;;;;;;10.52;5.18;;;6.30;99.90;;;;;;4957481;28;20039;-70
2022/10/04 04:36:44;;;;;;;13.05;5.93;;;6.40;99.90;;;;;;4972633;28;20481;-71
2022/10/04 04:42:09;;;;;;;9.27;5.95;;;6.40;99.90;;;;;;4953326;28;20063;-72
2022/10/04 04:44:49;;;;;;;14.57;6.82;;;6.50;99.90;;;;;;4962242;28;20058;-71
2022/10/04 04:47:28;;;;;;;12.50;6.07;;;6.50;99.90;;;;;;4934768;29;20063;-72
2022/10/04 04:50:01;;;;;;;12.15;6.07;;;6.50;99.90;;;;;;4945773;29;20043;-72
2022/10/04 04:52:29;;;;;;;9.27;5.75;;;6.50;99.90;;;;;;4952834;28;20462;-72
2022/10/04 04:54:57;;;;;;;11.07;5.72;;;6.50;99.90;;;;;;4949002;28;20493;-71
2022/10/04 04:57:24;;;;;;;13.13;7.03;;;6.50;99.90;;;;;;4952941;28;20090;-71
2022/10/04 04:59:59;;;;;;;8.95;5.85;;;6.50;99.90;;;;;;4933559;29;20447;-72
2022/10/04 05:02:33;;;;;;;11.60;6.90;;;6.50;99.90;;;;;;4950215;28;20387;-72
2022/10/04 05:05:20;;;;;;;11.95;6.35;;;6.50;99.90;;;;;;4953148;28;20039;-71
2022/10/04 05:07:48;;;;;;;10.40;6.22;;;6.40;99.90;;;;;;4949842;28;20051;-71
2022/10/04 05:10:21;;;;;;;9.73;5.70;;;6.50;99.90;;;;;;4953540;28;20051;-72
2022/10/04 05:12:49;;;;;;;10.80;6.20;;;6.50;99.90;;;;;;4963792;28;20916;-72
2022/10/04 05:15:16;;;;;;;10.10;6.38;;;6.50;99.90;;;;;;4952598;28;20039;-72
2022/10/04 05:17:45;;;;;;;12.55;6.93;;;6.50;99.90;;;;;;4948845;29;20122;-72
2022/10/04 05:20:14;;;;;;;10.82;5.35;;;6.50;99.90;;;;;;4953092;29;20050;-72
2022/10/04 05:22:47;;;;;;;9.75;5.80;;;6.60;99.90;;;;;;4935141;29;20070;-70
2022/10/04 05:25:29;;;;;;;12.38;6.35;;;6.60;99.90;;;;;;4947948;28;20846;-72
2022/10/04 05:27:57;;;;;;;9.98;6.18;;;6.60;99.90;;;;;;4949248;29;20053;-72
2022/10/04 05:31:00;;;;;;;11.88;6.53;;;6.60;99.90;;;;;;4913043;29;20570;-71
2022/10/04 05:33:46;;;;;;;9.35;5.50;;;6.70;99.90;;;;;;4951250;28;20063;-70
2022/10/04 05:36:25;;;;;;;11.38;5.70;;;6.70;99.90;;;;;;4951697;28;20050;-72
2022/10/04 05:39:14;;;;;;;10.15;6.05;;;6.70;99.90;;;;;;4952339;28;20041;-71
2022/10/04 05:41:50;;;;;;;11.48;6.68;;;6.80;99.90;;;;;;4935581;29;20059;-71
2022/10/04 05:44:35;;;;;;;9.35;6.40;;;6.80;99.90;;;;;;4952129;29;20047;-71
2022/10/04 05:47:07;;;;;;;10.52;6.35;;;6.80;99.90;;;;;;4951122;29;20059;-71
2022/10/04 05:49:45;;;;;;;10.18;6.97;;;6.90;99.90;;;;;;4967570;28;20598;-70
2022/10/04 05:52:14;;;;;;;11.68;7.05;;;6.90;99.90;;;;;;4952415;29;20075;-71
2022/10/04 05:54:42;;;;;;;10.90;6.45;;;7.00;99.90;;;;;;4944211;28;20048;-70
2022/10/04 05:57:30;;;;;;;10.45;6.32;;;7.10;99.90;;;;;;4946507;29;20039;-69
2022/10/04 05:59:57;;;;;;;13.75;6.45;;;7.10;99.90;;;;;;4942903;29;20065;-72
2022/10/04 06:02:44;;;;;;;12.10;6.25;;;7.20;99.90;;;;;;4929719;29;20126;-71
2022/10/04 06:05:36;;;;;;;10.93;6.30;;;7.20;99.90;;;;;;4950586;28;20042;-72
2022/10/04 06:08:40;;;;;;;13.32;6.78;;;7.30;99.90;;;;;;4951922;28;20047;-72
2022/10/04 06:11:17;;;;;;;15.25;7.80;;;7.40;99.90;;;;;;4951827;28;20046;-72
2022/10/04 06:14:18;;;;;;;10.00;6.18;;;7.40;99.90;;;;;;4952417;28;20043;-72
2022/10/04 06:17:21;;;;;;;11.40;6.88;;;7.50;99.90;;;;;;4941413;29;20054;-74
2022/10/04 06:20:34;;;;;;;16.92;6.43;;;7.60;99.90;;;;;;4951603;29;20178;-73
2022/10/04 06:23:10;;;;;;;16.45;7.32;;;7.70;99.90;;;;;;4933084;29;20049;-73
2022/10/04 06:25:48;;;;;;;8.63;5.70;;;7.70;99.90;;;;;;4932864;29;20047;-74
2022/10/04 06:28:21;;;;;;;12.90;7.40;;;7.90;99.90;;;;;;4949360;28;20050;-73
2022/10/04 06:31:41;;;;;;;11.73;6.25;;;8.00;99.90;;;;;;4948629;28;20430;-72
2022/10/04 06:34:47;;;;;;;10.27;5.95;;;8.00;99.90;;;;;;4960308;28;20502;-73
2022/10/04 06:37:30;;;;;;;9.35;5.85;;;8.20;99.90;;;;;;4949085;29;20501;-73
2022/10/04 06:40:16;;;;;;;14.45;6.40;;;8.20;99.90;;;;;;4950751;28;20054;-73
2022/10/04 06:43:02;;;;;;;11.00;5.80;;;8.40;99.90;;;;;;4930255;29;20063;-73
2022/10/04 06:46:07;;;;;;;10.35;6.00;;;8.50;99.90;;;;;;4950430;29;20382;-73
2022/10/04 06:48:41;;;;;;;8.88;5.60;;;8.60;99.90;;;;;;4950054;29;20465;-72
2022/10/04 06:51:14;;;;;;;10.40;6.03;;;8.70;99.90;;;;;;4950617;28;20087;-73
2022/10/04 06:54:00;;;;;;;13.15;6.43;;;8.80;99.90;;;;;;4948339;28;20150;-72
2022/10/04 06:57:08;;;;;;;12.75;6.65;;;9.00;99.90;;;;;;4950545;29;20410;-73
2022/10/04 06:59:47;;;;;;;13.52;6.30;;;9.20;99.90;;;;;;4946899;28;20493;-73
2022/10/04 07:02:21;;;;;;;11.20;5.63;;;9.30;99.90;;;;;;4950634;28;20397;-73
2022/10/04 07:05:16;;;;;;;9.80;5.20;;;9.40;99.90;;;;;;4932241;29;20056;-73
2022/10/04 07:07:49;;;;;;;10.48;5.57;;;9.60;99.90;;;;;;4961822;28;20540;-72
2022/10/04 07:10:31;;;;;;;14.55;5.70;;;9.70;99.90;;;;;;4949385;29;20040;-72
2022/10/04 07:13:26;;;;;;;10.45;5.68;;;9.80;99.90;;;;;;4948859;28;20051;-73
2022/10/04 07:16:00;;;;;;;16.48;5.80;;;9.90;99.90;;;;;;4949766;29;20094;-73
2022/10/04 07:19:08;;;;;;;11.63;5.50;;;10.00;99.90;;;;;;4950545;29;20059;-73
2022/10/04 07:21:56;;;;;;;9.90;5.60;;;10.00;99.90;;;;;;4953585;28;20401;-74
2022/10/04 07:24:37;;;;;;;12.00;5.93;;;10.20;99.90;;;;;;4933296;28;20059;-73
2022/10/04 07:27:11;;;;;;;8.97;5.53;;;10.20;99.90;;;;;;4957732;28;20046;-73
2022/10/04 07:29:45;;;;;;;11.68;5.75;;;10.30;99.90;;;;;;4933845;29;20060;-74
2022/10/04 07:32:22;;;;;;;11.43;6.47;;;10.50;99.90;;;;;;4951131;28;20110;-73
2022/10/04 07:34:58;;;;;;;12.32;6.25;;;10.60;99.90;;;;;;4954025;28;20469;-73
2022/10/04 07:37:28;;;;;;;9.93;5.38;;;10.70;99.90;;;;;;4952358;28;20090;-73
2022/10/04 07:40:05;;;;;;;11.85;5.03;;;10.90;99.90;;;;;;4938863;29;20051;-74
2022/10/04 07:42:53;;;;;;;9.90;5.47;;;11.00;99.90;;;;;;4952289;28;20054;-72
2022/10/04 07:45:26;;;;;;;11.35;5.22;;;11.00;99.90;;;;;;4952284;28;20051;-74
2022/10/04 07:48:23;;;;;;;9.18;5.63;;;11.00;99.90;;;;;;4948031;28;20102;-72
2022/10/04 07:51:13;;;;;;;10.55;6.03;;;11.10;99.90;;;;;;4932746;29;20059;-73
2022/10/04 07:54:11;;;;;;;10.63;5.88;;;11.10;99.90;;;;;;4951406;29;20059;-73
2022/10/04 07:56:41;;;;;;;13.15;6.20;;;11.10;99.90;;;;;;4953953;28;20047;-73
2022/10/04 07:59:59;;;;;;;9.05;5.30;;;10.90;99.90;;;;;;4937386;29;20086;-74
2022/10/04 08:02:47;;;;;;;13.98;5.53;;;11.20;99.90;;;;;;4950147;28;20569;-74
2022/10/04 08:05:23;;;;;;;9.25;5.43;;;11.40;99.90;;;;;;4952830;28;20066;-73
2022/10/04 08:08:24;;;;;;;10.73;5.15;;;11.60;99.90;;;;;;4959807;28;20059;-74
2022/10/04 08:11:30;;;;;;;10.50;5.53;;;11.60;99.90;;;;;;4955948;28;20078;-72
2022/10/04 08:14:21;;;;;;;10.23;6.55;;;11.70;99.90;;;;;;4954600;28;20062;-74
2022/10/04 08:17:11;;;;;;;13.80;7.88;;;11.80;99.90;;;;;;4942963;29;20047;-72
2022/10/04 08:20:01;;;;;;;9.60;5.75;;;12.10;99.90;;;;;;4954286;28;20382;-72
2022/10/04 08:22:29;;;;;;;12.15;5.25;;;12.40;99.90;;;;;;4959902;28;20557;-73
2022/10/04 08:25:26;;;;;;;16.98;5.97;;;12.60;99.90;;;;;;4964740;28;20417;-73
2022/10/04 08:31:43;;;;;;;12.32;6.10;;;12.80;99.90;;;;;;4933716;29;20054;-72
2022/10/04 08:34:32;;;;;;;9.85;6.35;;;13.00;99.90;;;;;;4954801;28;20055;-72
2022/10/04 08:37:02;;;;;;;16.10;7.00;;;13.20;99.90;;;;;;4950072;29;20549;-71
2022/10/04 08:39:48;;;;;;;14.95;6.85;;;13.30;99.90;;;;;;4955050;28;20051;-73
2022/10/04 08:42:40;;;;;;;17.13;6.95;;;13.40;99.90;;;;;;4934952;29;20049;-74
2022/10/04 08:45:48;;;;;;;21.67;9.43;;;13.60;99.90;;;;;;4945941;28;20044;-73
2022/10/04 08:48:37;;;;;;;14.02;7.25;;;13.60;99.90;;;;;;4944292;29;20505;-72
2022/10/04 08:51:41;;;;;;;16.80;8.30;;;13.80;99.90;;;;;;4953977;28;20121;-73
2022/10/04 08:54:49;;;;;;;13.05;6.70;;;13.90;99.90;;;;;;4953799;28;20129;-72
2022/10/04 08:57:47;;;;;;;18.15;8.80;;;14.10;99.90;;;;;;4952043;28;20067;-73
2022/10/04 09:00:30;;;;;;;12.88;6.90;;;14.30;99.90;;;;;;4951928;28;20039;-73
2022/10/04 09:03:12;;;;;;;12.00;7.05;;;14.50;99.90;;;;;;4947336;29;20039;-74
2022/10/04 09:05:39;;;;;;;;;;;14.50;99.90;;;;;;4949581;28;20058;-73
2022/10/04 09:08:21;;;;;;;10.35;6.68;;;14.60;99.90;;;;;;4956119;28;20282;-72
2022/10/04 09:11:13;;;;;;;15.68;6.70;;;14.70;99.90;;;;;;4952238;28;20115;-73
2022/10/04 09:13:50;;;;;;;14.30;6.75;;;14.70;99.90;;;;;;4935245;28;20065;-73
2022/10/04 09:16:37;;;;;;;14.93;7.25;;;14.80;99.90;;;;;;4968487;28;20049;-73
2022/10/04 09:19:26;;;;;;;11.98;6.07;;;15.00;99.90;;;;;;4946666;29;20043;-72
2022/10/04 09:22:13;;;;;;;11.82;7.43;;;15.00;99.90;;;;;;4949709;29;20043;-71
2022/10/04 09:24:49;;;;;;;12.32;6.97;;;14.90;99.90;;;;;;4961524;28;20148;-72
2022/10/04 09:27:44;;;;;;;10.93;7.38;;;15.20;99.90;;;;;;4942958;29;20522;-72
2022/10/04 09:31:04;;;;;;;10.90;6.80;;;15.30;99.90;;;;;;4950945;29;20507;-72
2022/10/04 09:33:50;;;;;;;10.82;6.78;;;15.20;99.90;;;;;;4933831;29;20051;-73
2022/10/04 09:37:13;;;;;;;14.38;7.35;;;15.30;99.90;;;;;;4957631;28;20050;-72
2022/10/04 09:40:09;;;;;;;10.77;6.68;;;15.30;99.90;;;;;;4949651;28;20058;-73
2022/10/04 09:43:16;;;;;;;13.52;7.88;;;15.50;99.90;;;;;;4958033;28;20058;-72
2022/10/04 09:46:08;;;;;;;11.73;6.95;;;15.60;99.90;;;;;;4931553;29;20091;-73
2022/10/04 09:49:00;;;;;;;11.32;6.10;;;15.70;99.90;;;;;;4953870;28;20161;-73
2022/10/04 09:52:04;;;;;;;11.77;6.03;;;15.60;99.90;;;;;;4937074;28;20066;-73
2022/10/04 09:55:28;;;;;;;7.97;5.55;;;15.60;99.90;;;;;;4943029;29;20047;-73
2022/10/04 09:58:02;;;;;;;8.70;6.07;;;15.80;99.90;;;;;;4889528;29;20148;-73
2022/10/04 10:00:37;;;;;;;9.85;5.43;;;16.10;99.90;;;;;;4912446;29;20198;-73
2022/10/04 10:03:35;;;;;;;8.90;5.13;;;16.00;99.90;;;;;;4906490;29;20060;-73
2022/10/04 10:06:30;;;;;;;10.20;5.03;;;15.80;99.90;;;;;;4899526;29;20056;-74
2022/10/04 10:13:38;;;;;;;10.98;5.72;;;15.90;99.90;;;;;;4894661;29;20052;-75
2022/10/04 10:15:29;;;;;;;8.32;5.15;;;16.00;99.90;;;;;;4926723;29;20047;-74
2022/10/04 10:18:27;;;;;;;13.23;5.15;;;16.20;99.90;;;;;;4913894;29;20653;-74
2022/10/04 10:21:33;;;;;;;8.38;4.63;;;16.60;99.90;;;;;;4897991;29;20044;-73
2022/10/04 10:24:46;;;;;;;7.32;4.65;;;16.60;99.90;;;;;;4891540;29;20182;-73
2022/10/04 10:27:25;;;;;;;7.72;5.20;;;16.50;99.90;;;;;;4904235;29;20048;-73
2022/10/04 10:29:58;;;;;;;7.18;4.78;;;16.30;99.90;;;;;;4956522;28;20054;-72
2022/10/04 10:32:39;;;;;;;8.88;4.57;;;16.50;99.90;;;;;;4951968;28;20062;-72
2022/10/04 10:35:32;;;;;;;7.38;4.45;;;16.50;99.90;;;;;;4934553;29;20044;-73
2022/10/04 10:38:02;;;;;;;8.88;4.53;;;16.70;99.90;;;;;;4952037;28;20059;-71
2022/10/04 10:40:52;;;;;;;10.57;4.35;;;16.80;99.90;;;;;;4951114;29;20047;-71
2022/10/04 10:43:32;;;;;;;7.85;4.57;;;17.10;99.90;;;;;;4951702;28;20498;-73
2022/10/04 10:46:14;;;;;;;6.47;4.13;;;17.10;99.90;;;;;;4947868;28;20053;-72
2022/10/04 10:49:06;;;;;;;7.63;4.45;;;17.30;99.90;;;;;;4932355;29;20420;-71
2022/10/04 10:51:45;;;;;;;;;;;17.60;99.90;;;;;;4948049;29;20391;-70
2022/10/04 10:54:33;;;;;;;9.25;4.75;;;17.90;99.90;;;;;;4950412;28;19926;-70
2022/10/04 10:57:39;;;;;;;8.82;4.35;;;18.20;99.90;;;;;;4950076;28;20043;-70
2022/10/04 11:00:38;;;;;;;7.10;4.20;;;18.50;99.90;;;;;;4959695;28;20537;-71
2022/10/04 11:03:42;;;;;;;8.10;4.00;;;18.50;99.90;;;;;;4950709;29;20090;-72
2022/10/04 11:06:24;;;;;;;6.90;4.50;;;18.30;99.90;;;;;;4910292;29;20093;-72
2022/10/04 11:09:11;;;;;;;5.60;3.83;;;18.40;99.90;;;;;;4912793;29;20055;-73
2022/10/04 11:12:15;;;;;;;6.80;4.03;;;18.80;99.90;;;;;;4924506;29;20416;-73
2022/10/04 11:15:00;;;;;;;10.68;4.40;;;19.20;99.90;;;;;;4930334;29;20518;-74
2022/10/04 11:17:51;;;;;;;6.03;4.43;;;19.40;99.90;;;;;;4925153;29;20051;-72
2022/10/04 11:20:46;;;;;;;6.60;4.50;;;19.40;99.90;;;;;;4930071;29;20044;-72
2022/10/04 11:24:05;;;;;;;9.32;4.88;;;19.20;99.90;;;;;;4930237;29;20044;-72
2022/10/04 11:26:51;;;;;;;5.20;4.10;;;19.20;99.90;;;;;;4932538;29;20095;-73
2022/10/04 11:29:23;;;;;;;6.15;4.40;;;19.20;99.90;;;;;;4933536;29;20477;-73
2022/10/04 11:31:59;;;;;;;4.93;4.10;;;19.40;99.90;;;;;;4932752;29;20488;-73
2022/10/04 11:34:54;;;;;;;5.20;4.00;;;19.80;99.90;;;;;;4933727;29;20048;-73
2022/10/04 11:38:01;;;;;;;6.25;4.45;;;19.60;99.90;;;;;;4917375;29;20418;-73
2022/10/04 11:40:54;;;;;;;7.13;4.18;;;19.60;99.90;;;;;;4923523;29;20047;-73
2022/10/04 11:43:39;;;;;;;7.10;4.30;;;19.80;99.90;;;;;;4925465;29;20055;-74
2022/10/04 11:46:19;;;;;;;5.53;4.30;;;20.00;99.90;;;;;;4951335;29;20383;-72
2022/10/04 11:49:01;;;;;;;6.82;4.07;;;20.20;99.90;;;;;;4953210;28;20045;-72
2022/10/04 11:51:50;;;;;;;7.05;4.53;;;20.30;99.90;;;;;;4954789;28;20047;-73
2022/10/04 11:54:52;;;;;;;8.07;4.50;;;20.30;99.90;;;;;;4953021;28;20031;-73
2022/10/04 11:57:46;;;;;;;7.65;4.88;;;20.10;99.90;;;;;;4949123;28;20043;-73
2022/10/04 12:00:20;;;;;;;5.85;4.40;;;20.60;99.90;;;;;;4968928;28;20066;-72
2022/10/04 12:03:09;;;;;;;10.07;4.45;;;20.40;99.90;;;;;;4954409;28;20133;-73
2022/10/04 12:05:46;;;;;;;5.72;4.38;;;20.80;99.90;;;;;;4948558;28;20114;-73
2022/10/04 12:08:30;;;;;;;7.80;4.65;;;21.20;99.90;;;;;;4941907;29;20070;-69
2022/10/04 12:12:35;;;;;;;7.20;4.47;;;21.50;99.90;;;;;;4952793;29;20047;-71
2022/10/04 12:14:25;;;;;;;6.45;4.68;;;21.80;99.90;;;;;;4952940;28;20058;-72
2022/10/04 12:17:24;;;;;;;8.30;4.97;;;21.90;99.90;;;;;;4966811;28;20050;-71
2022/10/04 12:20:17;;;;;;;6.45;5.15;;;22.60;99.90;;;;;;4944601;28;20043;-71
2022/10/04 12:23:15;;;;;;;7.35;4.72;;;22.80;99.90;;;;;;4946772;29;20056;-69
2022/10/04 12:26:00;;;;;;;4.90;4.40;;;23.20;99.90;;;;;;4945427;28;20106;-68
2022/10/04 12:28:46;;;;;;;13.55;5.15;;;23.80;99.90;;;;;;4948986;28;20441;-68
2022/10/04 12:31:40;;;;;;;5.25;4.75;;;24.50;99.90;;;;;;4946041;28;20047;-70
2022/10/04 12:34:13;;;;;;;7.18;4.80;;;24.40;99.90;;;;;;4950118;28;20094;-70
2022/10/04 12:36:52;;;;;;;9.43;5.30;;;25.30;99.90;;;;;;4950986;28;20099;-69
2022/10/04 12:39:20;;;;;;;6.03;5.05;;;26.50;99.90;;;;;;4951882;29;20435;-69
2022/10/04 12:42:18;;;;;;;5.78;4.97;;;27.50;99.90;;;;;;4955540;28;20074;-69
2022/10/04 12:45:13;;;;;;;6.13;5.40;;;28.10;98.20;;;;;;4945268;29;20055;-72
2022/10/04 12:48:19;;;;;;;7.75;5.18;;;29.40;95.90;;;;;;4957102;28;20039;-71
2022/10/04 12:51:16;;;;;;;7.22;5.28;;;30.30;92.80;;;;;;4949718;29;20447;-71
2022/10/04 12:54:07;;;;;;;6.28;5.75;;;30.30;90.50;;;;;;4964378;28;20067;-70
2022/10/04 12:56:52;;;;;;;6.77;6.13;;;30.40;90.10;;;;;;4954375;28;20046;-72
2022/10/04 12:59:37;;;;;;;6.40;5.30;;;30.70;88.00;;;;;;4947734;28;20376;-68
2022/10/04 13:02:07;;;;;;;6.55;5.18;;;31.20;89.40;;;;;;4937518;28;20542;-71
2022/10/04 13:04:38;;;;;;;5.73;5.13;;;32.00;82.70;;;;;;4965884;28;20050;-70
2022/10/04 13:07:27;;;;;;;6.25;5.13;;;31.80;81.40;;;;;;4935376;29;20473;-71
2022/10/04 13:10:31;;;;;;;7.38;5.60;;;31.60;81.80;;;;;;4939941;29;20074;-71
2022/10/04 13:13:19;;;;;;;6.30;5.70;;;31.90;79.70;;;;;;4957827;28;20043;-71
2022/10/04 13:15:49;;;;;;;5.22;4.72;;;32.30;77.90;;;;;;4950130;29;20058;-71
2022/10/04 13:18:49;;;;;;;6.70;5.20;;;32.20;76.40;;;;;;4949573;29;20039;-69
2022/10/04 13:21:35;;;;;;;6.23;5.63;;;31.40;78.00;;;;;;4951896;28;20037;-70
2022/10/04 13:24:57;;;;;;;5.57;4.93;;;30.90;77.20;;;;;;4952538;28;20497;-70
2022/10/04 13:27:24;;;;;;;7.38;5.80;;;30.50;77.50;;;;;;4954902;28;20054;-70
2022/10/04 13:30:15;;;;;;;5.90;5.30;;;30.00;79.50;;;;;;4951033;28;20103;-68
2022/10/04 13:32:57;;;;;;;6.15;5.35;;;30.00;78.60;;;;;;4954545;28;20152;-70
2022/10/04 13:35:57;;;;;;;6.18;5.25;;;30.30;78.30;;;;;;4950812;28;20062;-68
2022/10/04 13:38:45;;;;;;;6.93;5.53;;;30.60;77.10;;;;;;4951478;28;20059;-69
2022/10/04 13:41:42;;;;;;;5.88;5.30;;;30.30;80.10;;;;;;4960552;28;20047;-70
2022/10/04 13:44:25;;;;;;;6.47;4.68;;;29.70;77.60;;;;;;4930402;29;20117;-70
2022/10/04 13:47:30;;;;;;;5.25;4.75;;;29.90;78.20;;;;;;4951559;28;20058;-71
2022/10/04 13:50:18;;;;;;;5.68;4.90;;;29.70;77.20;;;;;;4944866;29;20055;-69
2022/10/04 13:56:35;;;;;;;5.30;4.80;;;29.40;78.30;;;;;;4950014;29;20043;-68
2022/10/04 13:59:20;;;;;;;4.88;4.38;;;29.10;78.80;;;;;;4947538;29;20063;-69
2022/10/04 14:02:02;;;;;;;8.35;5.05;;;29.60;77.50;;;;;;4955742;28;20043;-73
2022/10/04 14:04:55;;;;;;;7.32;5.63;;;29.80;77.00;;;;;;4951285;28;20058;-70
2022/10/04 14:07:48;;;;;;;5.50;4.97;;;30.10;77.30;;;;;;4948531;28;20055;-70
2022/10/04 14:10:33;;;;;;;8.18;5.10;;;29.90;75.90;;;;;;4934392;29;20142;-72
2022/10/04 14:13:25;;;;;;;5.45;4.82;;;29.00;76.30;;;;;;4969997;28;20050;-72
2022/10/04 14:16:43;;;;;;;8.05;5.07;;;29.10;76.80;;;;;;4940884;28;20050;-73
2022/10/04 14:19:35;;;;;;;6.35;5.22;;;30.10;77.70;;;;;;4944005;28;20140;-71
2022/10/04 14:22:21;;;;;;;7.07;4.95;;;29.90;76.60;;;;;;4957440;28;20045;-69
2022/10/04 14:25:15;;;;;;;5.35;4.85;;;29.50;78.60;;;;;;4951325;28;20042;-69
2022/10/04 14:28:08;;;;;;;5.20;4.70;;;29.60;78.70;;;;;;4948603;28;20047;-71